SKY2802 LGSR-LTBS
Flight info
| Callsign | SKY2802 |
|---|---|
| Flight time | 0h 56m |
| Altitude | 7000 |
| Route | ASTIS DCT RDS DCT SOTIV |
| Aircraft | DC3/M-SDF/S |
Departure
| Time | 2026-04-22 19:01 |
|---|---|
| Airport | Santorini International Airport (LGSR) |
Arrival
| Time | 2026-04-22 19:57 |
|---|---|
| Airport | Dalaman International Airport (LTBS) |
| Time | Latitude | Longitude | Altitude | Speed | Heading |
|---|---|---|---|---|---|
| 2026-04-22 18:40 | 36.40124 | 25.47474 | 108 ft | 0 kts | 248° |
| 2026-04-22 18:54 | 36.40127 | 25.47484 | 108 ft | 3 kts | 248° |
| 2026-04-22 18:54 | 36.40134 | 25.47505 | 108 ft | 3 kts | 248° |
| 2026-04-22 18:54 | 36.40137 | 25.47515 | 108 ft | 0 kts | 248° |
| 2026-04-22 18:55 | 36.40136 | 25.47509 | 108 ft | 2 kts | 297° |
| 2026-04-22 18:55 | 36.40146 | 25.47527 | 108 ft | 8 kts | 105° |
| 2026-04-22 18:55 | 36.40138 | 25.47614 | 108 ft | 11 kts | 81° |
| 2026-04-22 18:55 | 36.40092 | 25.47658 | 106 ft | 9 kts | 148° |
| 2026-04-22 18:56 | 36.40022 | 25.47703 | 103 ft | 14 kts | 158° |
| 2026-04-22 18:56 | 36.39924 | 25.47750 | 100 ft | 17 kts | 160° |
| 2026-04-22 18:56 | 36.39800 | 25.47807 | 98 ft | 21 kts | 159° |
| 2026-04-22 18:56 | 36.39661 | 25.47873 | 91 ft | 21 kts | 158° |
| 2026-04-22 18:57 | 36.39515 | 25.47940 | 89 ft | 23 kts | 161° |
| 2026-04-22 18:57 | 36.39364 | 25.48010 | 80 ft | 23 kts | 159° |
| 2026-04-22 18:57 | 36.39219 | 25.48080 | 71 ft | 22 kts | 159° |
| 2026-04-22 18:57 | 36.39086 | 25.48142 | 69 ft | 20 kts | 159° |
| 2026-04-22 18:58 | 36.39002 | 25.48204 | 65 ft | 10 kts | 88° |
| 2026-04-22 18:58 | 36.39007 | 25.48228 | 68 ft | 0 kts | 69° |
| 2026-04-22 18:59 | 36.39017 | 25.48258 | 65 ft | 7 kts | 70° |
| 2026-04-22 18:59 | 36.39053 | 25.48319 | 67 ft | 9 kts | 358° |
| 2026-04-22 19:00 | 36.39072 | 25.48314 | 62 ft | 0 kts | 339° |
| 2026-04-22 19:00 | 36.39178 | 25.48264 | 72 ft | 38 kts | 339° |
| 2026-04-22 19:00 | 36.39531 | 25.48090 | 85 ft | 71 kts | 341° |
| 2026-04-22 19:00 | 36.40092 | 25.47848 | 210 ft | 89 kts | 340° |
| 2026-04-22 19:01 | 36.40699 | 25.47561 | 389 ft | 104 kts | 334° |
| 2026-04-22 19:01 | 36.41395 | 25.47124 | 581 ft | 119 kts | 331° |
| 2026-04-22 19:01 | 36.42198 | 25.46684 | 803 ft | 133 kts | 339° |
| 2026-04-22 19:01 | 36.43124 | 25.46237 | 930 ft | 153 kts | 336° |
| 2026-04-22 19:02 | 36.44192 | 25.45800 | 968 ft | 169 kts | 341° |
| 2026-04-22 19:02 | 36.45338 | 25.45334 | 1061 ft | 176 kts | 337° |
| 2026-04-22 19:02 | 36.46491 | 25.44779 | 1218 ft | 178 kts | 336° |
| 2026-04-22 19:02 | 36.47609 | 25.44165 | 1427 ft | 173 kts | 327° |
| 2026-04-22 19:03 | 36.48583 | 25.43328 | 1638 ft | 169 kts | 328° |
| 2026-04-22 19:03 | 36.49741 | 25.43082 | 1827 ft | 176 kts | 6° |
| 2026-04-22 19:03 | 36.50782 | 25.43893 | 2031 ft | 185 kts | 49° |
| 2026-04-22 19:03 | 36.51202 | 25.45396 | 2241 ft | 186 kts | 82° |
| 2026-04-22 19:04 | 36.51358 | 25.46994 | 2449 ft | 187 kts | 81° |
| 2026-04-22 19:04 | 36.51529 | 25.48598 | 2654 ft | 188 kts | 86° |
| 2026-04-22 19:04 | 36.51557 | 25.50229 | 2852 ft | 188 kts | 87° |
| 2026-04-22 19:04 | 36.51808 | 25.51822 | 3055 ft | 188 kts | 74° |
| 2026-04-22 19:05 | 36.52149 | 25.53406 | 3261 ft | 191 kts | 73° |
| 2026-04-22 19:05 | 36.52519 | 25.55002 | 3456 ft | 193 kts | 72° |
| 2026-04-22 19:05 | 36.52903 | 25.56610 | 3652 ft | 195 kts | 72° |
| 2026-04-22 19:05 | 36.53293 | 25.58229 | 3853 ft | 197 kts | 72° |
| 2026-04-22 19:06 | 36.53700 | 25.59858 | 4053 ft | 198 kts | 72° |
| 2026-04-22 19:06 | 36.54098 | 25.61498 | 4254 ft | 198 kts | 72° |
| 2026-04-22 19:06 | 36.54509 | 25.63112 | 4457 ft | 193 kts | 71° |
| 2026-04-22 19:07 | 36.55292 | 25.66249 | 4859 ft | 187 kts | 72° |
| 2026-04-22 19:07 | 36.55686 | 25.67778 | 5054 ft | 184 kts | 72° |
| 2026-04-22 19:07 | 36.56066 | 25.69291 | 5252 ft | 182 kts | 72° |
| 2026-04-22 19:07 | 36.56445 | 25.70789 | 5451 ft | 180 kts | 72° |
| 2026-04-22 19:08 | 36.56800 | 25.72187 | 5640 ft | 179 kts | 72° |
| 2026-04-22 19:08 | 36.57166 | 25.73658 | 5843 ft | 177 kts | 72° |
| 2026-04-22 19:08 | 36.57530 | 25.75093 | 6041 ft | 175 kts | 72° |
| 2026-04-22 19:08 | 36.57891 | 25.76534 | 6255 ft | 174 kts | 72° |
| 2026-04-22 19:09 | 36.58250 | 25.77963 | 6442 ft | 172 kts | 72° |
| 2026-04-22 19:09 | 36.58602 | 25.79382 | 6637 ft | 171 kts | 72° |
| 2026-04-22 19:09 | 36.58834 | 25.80318 | 6765 ft | 170 kts | 72° |
| 2026-04-22 19:09 | 36.59178 | 25.81721 | 6955 ft | 168 kts | 72° |
| 2026-04-22 19:10 | 36.59516 | 25.83115 | 7155 ft | 167 kts | 72° |
| 2026-04-22 19:10 | 36.59844 | 25.84482 | 7352 ft | 165 kts | 72° |
| 2026-04-22 19:10 | 36.59959 | 25.85873 | 7540 ft | 160 kts | 98° |
| 2026-04-22 19:10 | 36.59831 | 25.87239 | 7742 ft | 158 kts | 97° |
| 2026-04-22 19:11 | 36.59708 | 25.88586 | 7942 ft | 156 kts | 97° |
| 2026-04-22 19:11 | 36.59586 | 25.89928 | 8142 ft | 155 kts | 97° |
| 2026-04-22 19:11 | 36.59469 | 25.91236 | 8344 ft | 153 kts | 97° |
| 2026-04-22 19:11 | 36.59347 | 25.92546 | 8551 ft | 151 kts | 97° |
| 2026-04-22 19:12 | 36.59225 | 25.93831 | 8757 ft | 148 kts | 97° |
| 2026-04-22 19:12 | 36.59107 | 25.95096 | 8961 ft | 145 kts | 97° |
| 2026-04-22 19:12 | 36.58993 | 25.96322 | 9159 ft | 142 kts | 97° |
| 2026-04-22 19:12 | 36.58877 | 25.97532 | 9366 ft | 139 kts | 97° |
| 2026-04-22 19:13 | 36.58762 | 25.98721 | 9558 ft | 137 kts | 97° |
| 2026-04-22 19:13 | 36.58649 | 25.99885 | 9728 ft | 136 kts | 97° |
| 2026-04-22 19:13 | 36.58536 | 26.01052 | 9888 ft | 135 kts | 97° |
| 2026-04-22 19:13 | 36.58422 | 26.02218 | 10039 ft | 138 kts | 97° |
| 2026-04-22 19:14 | 36.58297 | 26.03455 | 10120 ft | 154 kts | 97° |
| 2026-04-22 19:14 | 36.58152 | 26.04880 | 10038 ft | 179 kts | 97° |
| 2026-04-22 19:14 | 36.57989 | 26.06507 | 9894 ft | 196 kts | 97° |
| 2026-04-22 19:14 | 36.57819 | 26.08212 | 9744 ft | 205 kts | 97° |
| 2026-04-22 19:15 | 36.57640 | 26.10030 | 9586 ft | 213 kts | 97° |
| 2026-04-22 19:15 | 36.57461 | 26.11860 | 9431 ft | 218 kts | 97° |
| 2026-04-22 19:15 | 36.57274 | 26.13752 | 9263 ft | 222 kts | 97° |
| 2026-04-22 19:15 | 36.57086 | 26.15673 | 9116 ft | 224 kts | 97° |
| 2026-04-22 19:16 | 36.56900 | 26.17590 | 8960 ft | 226 kts | 97° |
| 2026-04-22 19:16 | 36.56707 | 26.19539 | 8807 ft | 227 kts | 97° |
| 2026-04-22 19:16 | 36.56465 | 26.21487 | 8656 ft | 226 kts | 98° |
| 2026-04-22 19:16 | 36.56323 | 26.23447 | 8502 ft | 227 kts | 94° |
| 2026-04-22 19:17 | 36.56217 | 26.25270 | 8359 ft | 228 kts | 94° |
| 2026-04-22 19:17 | 36.56105 | 26.27296 | 8193 ft | 228 kts | 94° |
| 2026-04-22 19:17 | 36.55874 | 26.29251 | 8070 ft | 230 kts | 102° |
| 2026-04-22 19:17 | 36.55575 | 26.31212 | 7910 ft | 230 kts | 99° |
| 2026-04-22 19:18 | 36.55400 | 26.33170 | 7760 ft | 230 kts | 95° |
| 2026-04-22 19:18 | 36.55199 | 26.35152 | 7622 ft | 231 kts | 100° |
| 2026-04-22 19:18 | 36.54915 | 26.37135 | 7469 ft | 233 kts | 99° |
| 2026-04-22 19:18 | 36.54718 | 26.39134 | 7311 ft | 232 kts | 96° |
| 2026-04-22 19:19 | 36.54512 | 26.41094 | 7169 ft | 231 kts | 100° |
| 2026-04-22 19:19 | 36.54221 | 26.43053 | 7017 ft | 229 kts | 99° |
| 2026-04-22 19:19 | 36.54041 | 26.45016 | 6990 ft | 226 kts | 95° |
| 2026-04-22 19:19 | 36.53840 | 26.46959 | 6997 ft | 226 kts | 100° |
| 2026-04-22 19:20 | 36.53557 | 26.48888 | 7015 ft | 227 kts | 99° |
| 2026-04-22 19:20 | 36.53373 | 26.50812 | 7010 ft | 226 kts | 95° |
| 2026-04-22 19:20 | 36.53169 | 26.52757 | 7007 ft | 226 kts | 99° |
| 2026-04-22 19:20 | 36.52891 | 26.54682 | 7001 ft | 226 kts | 99° |
| 2026-04-22 19:21 | 36.52690 | 26.56624 | 7001 ft | 225 kts | 96° |
| 2026-04-22 19:21 | 36.52496 | 26.58536 | 7006 ft | 225 kts | 99° |
| 2026-04-22 19:21 | 36.52224 | 26.60461 | 7006 ft | 225 kts | 99° |
| 2026-04-22 19:21 | 36.52012 | 26.62401 | 7005 ft | 225 kts | 96° |
| 2026-04-22 19:22 | 36.51821 | 26.64303 | 7007 ft | 223 kts | 98° |
| 2026-04-22 19:22 | 36.51554 | 26.66207 | 7000 ft | 221 kts | 100° |
| 2026-04-22 19:22 | 36.51340 | 26.68095 | 7004 ft | 220 kts | 96° |
| 2026-04-22 19:22 | 36.51152 | 26.69978 | 7007 ft | 219 kts | 98° |
| 2026-04-22 19:23 | 36.50897 | 26.71821 | 7006 ft | 218 kts | 100° |
| 2026-04-22 19:23 | 36.50681 | 26.73686 | 7007 ft | 218 kts | 96° |
| 2026-04-22 19:23 | 36.50492 | 26.75554 | 7007 ft | 217 kts | 98° |
| 2026-04-22 19:23 | 36.50239 | 26.77400 | 7006 ft | 217 kts | 99° |
| 2026-04-22 19:24 | 36.50027 | 26.79242 | 7008 ft | 217 kts | 96° |
| 2026-04-22 19:24 | 36.49835 | 26.81101 | 7010 ft | 216 kts | 98° |
| 2026-04-22 19:24 | 36.49579 | 26.82951 | 7008 ft | 216 kts | 99° |
| 2026-04-22 19:24 | 36.49368 | 26.84803 | 7009 ft | 216 kts | 96° |
| 2026-04-22 19:25 | 36.49174 | 26.86640 | 7009 ft | 216 kts | 99° |
| 2026-04-22 19:25 | 36.48918 | 26.88483 | 7004 ft | 216 kts | 99° |
| 2026-04-22 19:25 | 36.48714 | 26.90343 | 7009 ft | 216 kts | 97° |
| 2026-04-22 19:25 | 36.48508 | 26.92170 | 7009 ft | 216 kts | 99° |
| 2026-04-22 19:26 | 36.48250 | 26.94011 | 7007 ft | 216 kts | 99° |
| 2026-04-22 19:26 | 36.48046 | 26.95865 | 7010 ft | 216 kts | 97° |
| 2026-04-22 19:26 | 36.47830 | 26.97718 | 7009 ft | 216 kts | 99° |
| 2026-04-22 19:26 | 36.47578 | 26.99533 | 7001 ft | 216 kts | 99° |
| 2026-04-22 19:27 | 36.47377 | 27.01394 | 7002 ft | 216 kts | 97° |
| 2026-04-22 19:27 | 36.47154 | 27.03239 | 7008 ft | 216 kts | 100° |
| 2026-04-22 19:27 | 36.46894 | 27.05076 | 7006 ft | 216 kts | 99° |
| 2026-04-22 19:27 | 36.46703 | 27.06902 | 7005 ft | 215 kts | 97° |
| 2026-04-22 19:28 | 36.46487 | 27.08748 | 7004 ft | 215 kts | 100° |
| 2026-04-22 19:28 | 36.46233 | 27.10585 | 7002 ft | 215 kts | 99° |
| 2026-04-22 19:28 | 36.46035 | 27.12433 | 7004 ft | 215 kts | 97° |
| 2026-04-22 19:28 | 36.45814 | 27.14273 | 6999 ft | 215 kts | 100° |
| 2026-04-22 19:29 | 36.45565 | 27.16091 | 6999 ft | 215 kts | 99° |
| 2026-04-22 19:29 | 36.45368 | 27.17934 | 6999 ft | 215 kts | 97° |
| 2026-04-22 19:29 | 36.45144 | 27.19775 | 6997 ft | 215 kts | 100° |
| 2026-04-22 19:29 | 36.44892 | 27.21613 | 6998 ft | 215 kts | 99° |
| 2026-04-22 19:30 | 36.44760 | 27.22833 | 6998 ft | 215 kts | 97° |
| 2026-04-22 19:30 | 36.44469 | 27.25273 | 6992 ft | 215 kts | 100° |
| 2026-04-22 19:30 | 36.44220 | 27.27104 | 6995 ft | 215 kts | 98° |
| 2026-04-22 19:30 | 36.44027 | 27.28946 | 6995 ft | 215 kts | 98° |
| 2026-04-22 19:31 | 36.43791 | 27.30788 | 7025 ft | 217 kts | 100° |
| 2026-04-22 19:31 | 36.43553 | 27.32653 | 7019 ft | 219 kts | 98° |
| 2026-04-22 19:31 | 36.43321 | 27.34527 | 7006 ft | 219 kts | 100° |
| 2026-04-22 19:31 | 36.43060 | 27.36398 | 7006 ft | 220 kts | 100° |
| 2026-04-22 19:32 | 36.42852 | 27.38258 | 6994 ft | 220 kts | 96° |
| 2026-04-22 19:32 | 36.42664 | 27.40149 | 6994 ft | 222 kts | 99° |
| 2026-04-22 19:32 | 36.42390 | 27.42033 | 6977 ft | 220 kts | 101° |
| 2026-04-22 19:32 | 36.42159 | 27.43906 | 6978 ft | 219 kts | 97° |
| 2026-04-22 19:33 | 36.41956 | 27.45777 | 6979 ft | 217 kts | 99° |
| 2026-04-22 19:33 | 36.41694 | 27.47628 | 6981 ft | 216 kts | 101° |
| 2026-04-22 19:33 | 36.41470 | 27.49457 | 6983 ft | 216 kts | 97° |
| 2026-04-22 19:33 | 36.41267 | 27.51304 | 6988 ft | 215 kts | 99° |
| 2026-04-22 19:34 | 36.41006 | 27.53134 | 6985 ft | 215 kts | 101° |
| 2026-04-22 19:34 | 36.40784 | 27.54975 | 6978 ft | 215 kts | 97° |
| 2026-04-22 19:34 | 36.40579 | 27.56809 | 6980 ft | 214 kts | 99° |
| 2026-04-22 19:34 | 36.40321 | 27.58613 | 6984 ft | 214 kts | 101° |
| 2026-04-22 19:35 | 36.40101 | 27.60451 | 6983 ft | 213 kts | 98° |
| 2026-04-22 19:35 | 36.39892 | 27.62266 | 6985 ft | 212 kts | 100° |
| 2026-04-22 19:35 | 36.39723 | 27.63448 | 6981 ft | 211 kts | 101° |
| 2026-04-22 19:35 | 36.39426 | 27.65854 | 6980 ft | 209 kts | 98° |
| 2026-04-22 19:36 | 36.39212 | 27.67641 | 6976 ft | 209 kts | 100° |
| 2026-04-22 19:36 | 36.38961 | 27.69393 | 6980 ft | 208 kts | 100° |
| 2026-04-22 19:36 | 36.38760 | 27.71184 | 6979 ft | 208 kts | 98° |
| 2026-04-22 19:36 | 36.38543 | 27.72935 | 6977 ft | 207 kts | 101° |
| 2026-04-22 19:37 | 36.38290 | 27.74697 | 6975 ft | 207 kts | 100° |
| 2026-04-22 19:37 | 36.38086 | 27.76475 | 6975 ft | 207 kts | 98° |
| 2026-04-22 19:37 | 36.37859 | 27.78239 | 6971 ft | 207 kts | 101° |
| 2026-04-22 19:37 | 36.37617 | 27.79979 | 6974 ft | 207 kts | 99° |
| 2026-04-22 19:38 | 36.37417 | 27.81750 | 6975 ft | 207 kts | 99° |
| 2026-04-22 19:38 | 36.37181 | 27.83509 | 6975 ft | 207 kts | 101° |
| 2026-04-22 19:38 | 36.36940 | 27.85276 | 6971 ft | 207 kts | 99° |
| 2026-04-22 19:38 | 36.36740 | 27.87043 | 6974 ft | 206 kts | 99° |
| 2026-04-22 19:39 | 36.36496 | 27.88799 | 6973 ft | 206 kts | 101° |
| 2026-04-22 19:39 | 36.36266 | 27.90540 | 6975 ft | 207 kts | 99° |
| 2026-04-22 19:39 | 36.36064 | 27.92303 | 6974 ft | 206 kts | 100° |
| 2026-04-22 19:39 | 36.35812 | 27.94064 | 6973 ft | 206 kts | 101° |
| 2026-04-22 19:40 | 36.35588 | 27.95830 | 6975 ft | 207 kts | 98° |
| 2026-04-22 19:40 | 36.35384 | 27.97600 | 6992 ft | 208 kts | 99° |
| 2026-04-22 19:40 | 36.35125 | 27.99360 | 6986 ft | 211 kts | 102° |
| 2026-04-22 19:40 | 36.34881 | 28.01165 | 6968 ft | 213 kts | 98° |
| 2026-04-22 19:41 | 36.34681 | 28.02986 | 6971 ft | 212 kts | 100° |
| 2026-04-22 19:41 | 36.34418 | 28.04788 | 6973 ft | 212 kts | 102° |
| 2026-04-22 19:41 | 36.34202 | 28.06578 | 6976 ft | 212 kts | 92° |
| 2026-04-22 19:41 | 36.34500 | 28.08356 | 6965 ft | 210 kts | 68° |
| 2026-04-22 19:42 | 36.35101 | 28.10009 | 6968 ft | 209 kts | 63° |
| 2026-04-22 19:42 | 36.35739 | 28.11613 | 6984 ft | 209 kts | 62° |
| 2026-04-22 19:42 | 36.36512 | 28.13139 | 6983 ft | 208 kts | 55° |
| 2026-04-22 19:42 | 36.37092 | 28.14787 | 6970 ft | 209 kts | 73° |
| 2026-04-22 19:43 | 36.37896 | 28.18285 | 6962 ft | 210 kts | 73° |
| 2026-04-22 19:43 | 36.38279 | 28.20039 | 6974 ft | 210 kts | 75° |
| 2026-04-22 19:43 | 36.38653 | 28.21765 | 6976 ft | 210 kts | 72° |
| 2026-04-22 19:44 | 36.39177 | 28.23474 | 6896 ft | 215 kts | 67° |
| 2026-04-22 19:44 | 36.39719 | 28.25238 | 6740 ft | 219 kts | 70° |
| 2026-04-22 19:44 | 36.40176 | 28.27049 | 6559 ft | 218 kts | 73° |
| 2026-04-22 19:44 | 36.40654 | 28.28838 | 6388 ft | 217 kts | 69° |
| 2026-04-22 19:45 | 36.41006 | 28.29976 | 6276 ft | 216 kts | 69° |
| 2026-04-22 19:45 | 36.41653 | 28.32334 | 6035 ft | 215 kts | 73° |
| 2026-04-22 19:45 | 36.41951 | 28.33506 | 5920 ft | 214 kts | 72° |
| 2026-04-22 19:45 | 36.42476 | 28.35299 | 5728 ft | 213 kts | 69° |
| 2026-04-22 19:46 | 36.42973 | 28.37037 | 5562 ft | 213 kts | 72° |
| 2026-04-22 19:46 | 36.43413 | 28.38771 | 5388 ft | 212 kts | 72° |
| 2026-04-22 19:46 | 36.43912 | 28.40498 | 5211 ft | 211 kts | 70° |
| 2026-04-22 19:46 | 36.44411 | 28.42216 | 5040 ft | 210 kts | 72° |
| 2026-04-22 19:47 | 36.44844 | 28.43952 | 4864 ft | 210 kts | 73° |
| 2026-04-22 19:47 | 36.45330 | 28.45663 | 4694 ft | 209 kts | 70° |
| 2026-04-22 19:47 | 36.45673 | 28.46786 | 4579 ft | 209 kts | 71° |
| 2026-04-22 19:47 | 36.46260 | 28.49071 | 4341 ft | 208 kts | 74° |
| 2026-04-22 19:48 | 36.46730 | 28.50778 | 4175 ft | 209 kts | 70° |
| 2026-04-22 19:48 | 36.47235 | 28.52440 | 3998 ft | 207 kts | 72° |
| 2026-04-22 19:48 | 36.47671 | 28.54158 | 3822 ft | 206 kts | 75° |
| 2026-04-22 19:48 | 36.48114 | 28.55833 | 3650 ft | 206 kts | 71° |
| 2026-04-22 19:49 | 36.48620 | 28.57505 | 3483 ft | 206 kts | 71° |
| 2026-04-22 19:49 | 36.49064 | 28.59195 | 3312 ft | 205 kts | 75° |
| 2026-04-22 19:49 | 36.49499 | 28.60889 | 3139 ft | 205 kts | 72° |
| 2026-04-22 19:49 | 36.50001 | 28.62552 | 2965 ft | 204 kts | 71° |
| 2026-04-22 19:50 | 36.50445 | 28.64190 | 2886 ft | 200 kts | 75° |
| 2026-04-22 19:50 | 36.50849 | 28.65826 | 2849 ft | 194 kts | 73° |
| 2026-04-22 19:50 | 36.51316 | 28.67380 | 2823 ft | 187 kts | 70° |
| 2026-04-22 19:50 | 36.51724 | 28.68847 | 2824 ft | 177 kts | 74° |
| 2026-04-22 19:51 | 36.52090 | 28.70276 | 2816 ft | 169 kts | 72° |
| 2026-04-22 19:51 | 36.52522 | 28.71592 | 2816 ft | 162 kts | 60° |
| 2026-04-22 19:51 | 36.53367 | 28.72456 | 2814 ft | 159 kts | 20° |
| 2026-04-22 19:51 | 36.54432 | 28.72346 | 2818 ft | 156 kts | 333° |
| 2026-04-22 19:52 | 36.55310 | 28.71638 | 2826 ft | 149 kts | 335° |
| 2026-04-22 19:52 | 36.56311 | 28.71597 | 2819 ft | 146 kts | 24° |
| 2026-04-22 19:52 | 36.57075 | 28.72380 | 2831 ft | 140 kts | 44° |
| 2026-04-22 19:52 | 36.57938 | 28.72895 | 2823 ft | 140 kts | 4° |
| 2026-04-22 19:53 | 36.58808 | 28.73088 | 2887 ft | 114 kts | 18° |
| 2026-04-22 19:53 | 36.59547 | 28.73369 | 2740 ft | 112 kts | 21° |
| 2026-04-22 19:53 | 36.60051 | 28.73614 | 2492 ft | 122 kts | 24° |
| 2026-04-22 19:53 | 36.61193 | 28.74210 | 1793 ft | 139 kts | 28° |
| 2026-04-22 19:54 | 36.61992 | 28.74781 | 1467 ft | 123 kts | 32° |
| 2026-04-22 19:54 | 36.62670 | 28.75270 | 1401 ft | 107 kts | 30° |
| 2026-04-22 19:54 | 36.63322 | 28.75673 | 1253 ft | 104 kts | 26° |
| 2026-04-22 19:54 | 36.63960 | 28.76061 | 1188 ft | 98 kts | 26° |
| 2026-04-22 19:55 | 36.64529 | 28.76409 | 1158 ft | 86 kts | 28° |
| 2026-04-22 19:55 | 36.65074 | 28.76708 | 1032 ft | 85 kts | 26° |
| 2026-04-22 19:55 | 36.65577 | 28.77008 | 948 ft | 80 kts | 25° |
| 2026-04-22 19:55 | 36.66096 | 28.77265 | 810 ft | 81 kts | 22° |
| 2026-04-22 19:56 | 36.66626 | 28.77500 | 698 ft | 79 kts | 19° |
| 2026-04-22 19:56 | 36.67122 | 28.77755 | 612 ft | 74 kts | 21° |
| 2026-04-22 19:56 | 36.67611 | 28.77952 | 496 ft | 73 kts | 18° |
| 2026-04-22 19:56 | 36.68080 | 28.78127 | 406 ft | 68 kts | 23° |
| 2026-04-22 19:57 | 36.68524 | 28.78295 | 300 ft | 66 kts | 15° |
| 2026-04-22 19:57 | 36.68960 | 28.78445 | 220 ft | 62 kts | 17° |
| 2026-04-22 19:57 | 36.69227 | 28.78542 | 156 ft | 59 kts | 22° |
| 2026-04-22 19:57 | 36.69481 | 28.78564 | 29 ft | 5 kts | 180° |
| 2026-04-22 19:58 | 36.69468 | 28.78564 | 31 ft | 0 kts | 180° |
| 2026-04-22 19:58 | 36.69464 | 28.78564 | 29 ft | 5 kts | 180° |
| 2026-04-22 19:58 | 36.69509 | 28.78607 | 31 ft | 25 kts | 10° |
| 2026-04-22 19:58 | 36.69766 | 28.78673 | 31 ft | 45 kts | 23° |
| 2026-04-22 19:59 | 36.70049 | 28.78826 | 29 ft | 42 kts | 9° |
| 2026-04-22 20:00 | 36.70830 | 28.78877 | 30 ft | 21 kts | 15° |
| 2026-04-22 20:00 | 36.70976 | 28.78925 | 30 ft | 22 kts | 15° |
| 2026-04-22 20:01 | 36.71115 | 28.78975 | 30 ft | 19 kts | 16° |
| 2026-04-22 20:01 | 36.71234 | 28.79016 | 30 ft | 16 kts | 12° |
| 2026-04-22 20:01 | 36.71330 | 28.78979 | 30 ft | 16 kts | 302° |
| 2026-04-22 20:01 | 36.71381 | 28.78864 | 30 ft | 14 kts | 353° |
| 2026-04-22 20:02 | 36.71461 | 28.78875 | 30 ft | 8 kts | 352° |
| 2026-04-22 20:02 | 36.71497 | 28.78826 | 30 ft | 8 kts | 289° |
| 2026-04-22 20:02 | 36.71512 | 28.78764 | 30 ft | 6 kts | 286° |
| 2026-04-22 20:02 | 36.71515 | 28.78748 | 30 ft | 0 kts | 286° |